sensor_id;sensor_type;location;lat;lon;timestamp;P1;durP1;ratioP1;P2;durP2;ratioP2
36385;SDS011;24125;47.482;8.770;2023-01-30T00:02:15;20.08;;;10.80;;
36385;SDS011;24125;47.482;8.770;2023-01-30T00:04:48;18.48;;;9.55;;
36385;SDS011;24125;47.482;8.770;2023-01-30T00:07:22;17.77;;;9.48;;
36385;SDS011;24125;47.482;8.770;2023-01-30T00:09:55;20.98;;;9.43;;
36385;SDS011;24125;47.482;8.770;2023-01-30T00:12:27;16.92;;;9.48;;
36385;SDS011;24125;47.482;8.770;2023-01-30T00:15:02;19.92;;;10.60;;
36385;SDS011;24125;47.482;8.770;2023-01-30T00:17:35;19.75;;;9.88;;
36385;SDS011;24125;47.482;8.770;2023-01-30T00:20:09;18.45;;;9.82;;
36385;SDS011;24125;47.482;8.770;2023-01-30T00:22:45;18.83;;;9.77;;
36385;SDS011;24125;47.482;8.770;2023-01-30T00:25:30;20.20;;;10.05;;
36385;SDS011;24125;47.482;8.770;2023-01-30T00:28:04;18.65;;;9.73;;
36385;SDS011;24125;47.482;8.770;2023-01-30T00:30:39;18.20;;;9.77;;
36385;SDS011;24125;47.482;8.770;2023-01-30T00:33:12;18.98;;;9.88;;
36385;SDS011;24125;47.482;8.770;2023-01-30T00:35:45;19.23;;;9.95;;
36385;SDS011;24125;47.482;8.770;2023-01-30T00:38:19;19.27;;;9.50;;
36385;SDS011;24125;47.482;8.770;2023-01-30T00:40:53;21.30;;;10.55;;
36385;SDS011;24125;47.482;8.770;2023-01-30T00:43:26;21.35;;;10.27;;
36385;SDS011;24125;47.482;8.770;2023-01-30T00:46:20;20.50;;;9.93;;
36385;SDS011;24125;47.482;8.770;2023-01-30T00:49:10;21.30;;;10.27;;
36385;SDS011;24125;47.482;8.770;2023-01-30T00:51:44;19.83;;;10.65;;
36385;SDS011;24125;47.482;8.770;2023-01-30T00:54:17;21.88;;;10.07;;
36385;SDS011;24125;47.482;8.770;2023-01-30T00:56:50;21.20;;;10.45;;
36385;SDS011;24125;47.482;8.770;2023-01-30T00:59:23;21.83;;;10.68;;
36385;SDS011;24125;47.482;8.770;2023-01-30T01:01:57;24.20;;;11.18;;
36385;SDS011;24125;47.482;8.770;2023-01-30T01:04:30;21.10;;;10.50;;
36385;SDS011;24125;47.482;8.770;2023-01-30T01:07:13;19.33;;;10.32;;
36385;SDS011;24125;47.482;8.770;2023-01-30T01:09:47;23.08;;;11.45;;
36385;SDS011;24125;47.482;8.770;2023-01-30T01:12:20;23.10;;;11.02;;
36385;SDS011;24125;47.482;8.770;2023-01-30T01:14:53;19.50;;;10.40;;
36385;SDS011;24125;47.482;8.770;2023-01-30T01:17:27;20.52;;;10.10;;
36385;SDS011;24125;47.482;8.770;2023-01-30T01:20:00;21.05;;;10.90;;
36385;SDS011;24125;47.482;8.770;2023-01-30T01:22:34;22.02;;;10.73;;
36385;SDS011;24125;47.482;8.770;2023-01-30T01:25:07;18.35;;;10.20;;
36385;SDS011;24125;47.482;8.770;2023-01-30T01:27:41;23.67;;;10.63;;
36385;SDS011;24125;47.482;8.770;2023-01-30T01:30:14;20.80;;;10.60;;
36385;SDS011;24125;47.482;8.770;2023-01-30T01:32:49;22.95;;;10.52;;
36385;SDS011;24125;47.482;8.770;2023-01-30T01:35:22;21.00;;;10.95;;
36385;SDS011;24125;47.482;8.770;2023-01-30T01:37:55;21.83;;;11.32;;
36385;SDS011;24125;47.482;8.770;2023-01-30T01:40:28;21.90;;;10.65;;
36385;SDS011;24125;47.482;8.770;2023-01-30T01:43:18;21.30;;;11.18;;
36385;SDS011;24125;47.482;8.770;2023-01-30T01:45:54;17.40;;;9.43;;
36385;SDS011;24125;47.482;8.770;2023-01-30T01:48:33;19.85;;;10.02;;
36385;SDS011;24125;47.482;8.770;2023-01-30T01:51:10;17.98;;;9.93;;
36385;SDS011;24125;47.482;8.770;2023-01-30T01:53:48;22.10;;;11.27;;
36385;SDS011;24125;47.482;8.770;2023-01-30T01:56:25;21.20;;;10.18;;
36385;SDS011;24125;47.482;8.770;2023-01-30T01:59:00;20.90;;;10.93;;
36385;SDS011;24125;47.482;8.770;2023-01-30T02:01:37;19.85;;;10.38;;
36385;SDS011;24125;47.482;8.770;2023-01-30T02:04:11;21.98;;;11.07;;
36385;SDS011;24125;47.482;8.770;2023-01-30T02:06:44;20.75;;;11.20;;
36385;SDS011;24125;47.482;8.770;2023-01-30T02:09:17;21.88;;;10.52;;
36385;SDS011;24125;47.482;8.770;2023-01-30T02:11:51;25.48;;;11.98;;
36385;SDS011;24125;47.482;8.770;2023-01-30T02:14:29;21.85;;;11.23;;
36385;SDS011;24125;47.482;8.770;2023-01-30T02:17:05;21.45;;;11.68;;
36385;SDS011;24125;47.482;8.770;2023-01-30T02:19:41;19.58;;;10.55;;
36385;SDS011;24125;47.482;8.770;2023-01-30T02:22:23;18.67;;;10.68;;
36385;SDS011;24125;47.482;8.770;2023-01-30T02:25:23;21.23;;;10.82;;
36385;SDS011;24125;47.482;8.770;2023-01-30T02:28:27;19.90;;;10.55;;
36385;SDS011;24125;47.482;8.770;2023-01-30T02:31:28;19.88;;;10.20;;
36385;SDS011;24125;47.482;8.770;2023-01-30T02:34:13;19.55;;;10.63;;
36385;SDS011;24125;47.482;8.770;2023-01-30T02:37:00;23.02;;;10.68;;
36385;SDS011;24125;47.482;8.770;2023-01-30T02:39:43;20.92;;;10.93;;
36385;SDS011;24125;47.482;8.770;2023-01-30T02:42:28;23.92;;;10.05;;
36385;SDS011;24125;47.482;8.770;2023-01-30T02:45:09;22.08;;;11.02;;
36385;SDS011;24125;47.482;8.770;2023-01-30T02:47:52;19.20;;;9.90;;
36385;SDS011;24125;47.482;8.770;2023-01-30T02:50:29;20.25;;;10.43;;
36385;SDS011;24125;47.482;8.770;2023-01-30T02:53:07;21.48;;;10.73;;
36385;SDS011;24125;47.482;8.770;2023-01-30T02:55:41;20.63;;;10.60;;
36385;SDS011;24125;47.482;8.770;2023-01-30T02:58:14;23.17;;;11.00;;
36385;SDS011;24125;47.482;8.770;2023-01-30T03:00:58;19.13;;;9.93;;
36385;SDS011;24125;47.482;8.770;2023-01-30T03:03:53;19.63;;;10.13;;
36385;SDS011;24125;47.482;8.770;2023-01-30T03:09:24;17.95;;;8.40;;
36385;SDS011;24125;47.482;8.770;2023-01-30T03:12:06;17.77;;;9.35;;
36385;SDS011;24125;47.482;8.770;2023-01-30T03:14:46;18.23;;;9.73;;
36385;SDS011;24125;47.482;8.770;2023-01-30T03:17:23;18.95;;;10.30;;
36385;SDS011;24125;47.482;8.770;2023-01-30T03:20:00;20.38;;;9.88;;
36385;SDS011;24125;47.482;8.770;2023-01-30T03:22:33;17.85;;;10.25;;
36385;SDS011;24125;47.482;8.770;2023-01-30T03:25:06;21.63;;;10.52;;
36385;SDS011;24125;47.482;8.770;2023-01-30T03:27:40;21.95;;;10.93;;
36385;SDS011;24125;47.482;8.770;2023-01-30T03:30:13;17.77;;;10.57;;
36385;SDS011;24125;47.482;8.770;2023-01-30T03:32:46;17.95;;;9.57;;
36385;SDS011;24125;47.482;8.770;2023-01-30T03:35:21;18.20;;;10.55;;
36385;SDS011;24125;47.482;8.770;2023-01-30T03:37:54;19.25;;;9.95;;
36385;SDS011;24125;47.482;8.770;2023-01-30T03:40:27;22.08;;;10.52;;
36385;SDS011;24125;47.482;8.770;2023-01-30T03:43:00;20.10;;;10.45;;
36385;SDS011;24125;47.482;8.770;2023-01-30T03:45:33;18.35;;;9.68;;
36385;SDS011;24125;47.482;8.770;2023-01-30T03:48:06;19.40;;;9.77;;
36385;SDS011;24125;47.482;8.770;2023-01-30T03:50:40;19.05;;;9.98;;
36385;SDS011;24125;47.482;8.770;2023-01-30T03:53:13;19.65;;;9.90;;
36385;SDS011;24125;47.482;8.770;2023-01-30T03:55:46;20.73;;;10.60;;
36385;SDS011;24125;47.482;8.770;2023-01-30T03:58:19;18.92;;;10.35;;
36385;SDS011;24125;47.482;8.770;2023-01-30T04:00:54;20.15;;;10.43;;
36385;SDS011;24125;47.482;8.770;2023-01-30T04:03:27;18.27;;;9.32;;
36385;SDS011;24125;47.482;8.770;2023-01-30T04:06:01;20.20;;;10.23;;
36385;SDS011;24125;47.482;8.770;2023-01-30T04:08:34;19.40;;;9.93;;
36385;SDS011;24125;47.482;8.770;2023-01-30T04:11:07;18.98;;;10.90;;
36385;SDS011;24125;47.482;8.770;2023-01-30T04:13:40;18.55;;;10.30;;
36385;SDS011;24125;47.482;8.770;2023-01-30T04:16:14;18.77;;;9.98;;
36385;SDS011;24125;47.482;8.770;2023-01-30T04:18:49;20.80;;;11.32;;
36385;SDS011;24125;47.482;8.770;2023-01-30T04:21:23;18.88;;;10.02;;
36385;SDS011;24125;47.482;8.770;2023-01-30T04:23:56;20.42;;;10.82;;
36385;SDS011;24125;47.482;8.770;2023-01-30T04:26:30;21.75;;;10.90;;
36385;SDS011;24125;47.482;8.770;2023-01-30T04:29:03;22.30;;;10.48;;
36385;SDS011;24125;47.482;8.770;2023-01-30T04:31:36;21.52;;;10.50;;
36385;SDS011;24125;47.482;8.770;2023-01-30T04:34:09;20.92;;;10.52;;
36385;SDS011;24125;47.482;8.770;2023-01-30T04:36:44;18.77;;;10.43;;
36385;SDS011;24125;47.482;8.770;2023-01-30T04:39:16;19.50;;;10.55;;
36385;SDS011;24125;47.482;8.770;2023-01-30T04:41:52;21.13;;;10.85;;
36385;SDS011;24125;47.482;8.770;2023-01-30T04:44:25;19.45;;;10.55;;
36385;SDS011;24125;47.482;8.770;2023-01-30T04:46:58;18.27;;;9.75;;
36385;SDS011;24125;47.482;8.770;2023-01-30T04:49:32;22.02;;;11.02;;
36385;SDS011;24125;47.482;8.770;2023-01-30T04:52:06;20.30;;;10.23;;
36385;SDS011;24125;47.482;8.770;2023-01-30T04:54:40;20.25;;;10.07;;
36385;SDS011;24125;47.482;8.770;2023-01-30T04:57:12;18.92;;;10.32;;
36385;SDS011;24125;47.482;8.770;2023-01-30T04:59:45;18.45;;;9.60;;
36385;SDS011;24125;47.482;8.770;2023-01-30T05:02:18;17.45;;;9.88;;
36385;SDS011;24125;47.482;8.770;2023-01-30T05:04:54;17.67;;;9.40;;
36385;SDS011;24125;47.482;8.770;2023-01-30T05:07:28;16.88;;;9.43;;
36385;SDS011;24125;47.482;8.770;2023-01-30T05:10:01;19.92;;;9.68;;
36385;SDS011;24125;47.482;8.770;2023-01-30T05:12:34;21.58;;;10.13;;
36385;SDS011;24125;47.482;8.770;2023-01-30T05:15:07;18.30;;;9.85;;
36385;SDS011;24125;47.482;8.770;2023-01-30T05:17:41;20.73;;;10.15;;
36385;SDS011;24125;47.482;8.770;2023-01-30T05:20:15;17.67;;;9.45;;
36385;SDS011;24125;47.482;8.770;2023-01-30T05:22:49;18.85;;;10.00;;
36385;SDS011;24125;47.482;8.770;2023-01-30T05:25:22;17.85;;;8.93;;
36385;SDS011;24125;47.482;8.770;2023-01-30T05:27:55;17.88;;;9.57;;
36385;SDS011;24125;47.482;8.770;2023-01-30T05:30:28;21.52;;;10.52;;
36385;SDS011;24125;47.482;8.770;2023-01-30T05:33:01;20.13;;;9.52;;
36385;SDS011;24125;47.482;8.770;2023-01-30T05:35:35;20.65;;;10.20;;
36385;SDS011;24125;47.482;8.770;2023-01-30T05:38:09;19.52;;;10.13;;
36385;SDS011;24125;47.482;8.770;2023-01-30T05:40:42;19.63;;;9.95;;
36385;SDS011;24125;47.482;8.770;2023-01-30T05:43:15;19.27;;;9.90;;
36385;SDS011;24125;47.482;8.770;2023-01-30T05:45:51;19.58;;;10.13;;
36385;SDS011;24125;47.482;8.770;2023-01-30T05:48:25;19.38;;;10.30;;
36385;SDS011;24125;47.482;8.770;2023-01-30T05:50:58;20.98;;;10.55;;
36385;SDS011;24125;47.482;8.770;2023-01-30T05:53:33;19.55;;;10.15;;
36385;SDS011;24125;47.482;8.770;2023-01-30T05:56:07;23.85;;;10.15;;
36385;SDS011;24125;47.482;8.770;2023-01-30T05:58:41;19.58;;;10.85;;
36385;SDS011;24125;47.482;8.770;2023-01-30T06:01:14;18.50;;;9.55;;
36385;SDS011;24125;47.482;8.770;2023-01-30T06:03:47;19.15;;;10.43;;
36385;SDS011;24125;47.482;8.770;2023-01-30T06:06:21;20.13;;;9.77;;
36385;SDS011;24125;47.482;8.770;2023-01-30T06:08:56;17.50;;;10.02;;
36385;SDS011;24125;47.482;8.770;2023-01-30T06:11:29;19.67;;;9.55;;
36385;SDS011;24125;47.482;8.770;2023-01-30T06:14:02;20.90;;;10.30;;
36385;SDS011;24125;47.482;8.770;2023-01-30T06:16:35;20.08;;;10.52;;
36385;SDS011;24125;47.482;8.770;2023-01-30T06:19:08;21.15;;;9.60;;
36385;SDS011;24125;47.482;8.770;2023-01-30T06:21:41;19.75;;;10.52;;
36385;SDS011;24125;47.482;8.770;2023-01-30T06:24:16;20.95;;;10.35;;
36385;SDS011;24125;47.482;8.770;2023-01-30T06:26:48;16.60;;;9.68;;
36385;SDS011;24125;47.482;8.770;2023-01-30T06:29:21;20.48;;;9.60;;
36385;SDS011;24125;47.482;8.770;2023-01-30T06:31:54;18.75;;;9.82;;
36385;SDS011;24125;47.482;8.770;2023-01-30T06:34:27;17.52;;;9.70;;
36385;SDS011;24125;47.482;8.770;2023-01-30T06:37:00;20.35;;;10.75;;
36385;SDS011;24125;47.482;8.770;2023-01-30T06:39:35;21.13;;;10.73;;
36385;SDS011;24125;47.482;8.770;2023-01-30T06:42:08;21.58;;;10.35;;
36385;SDS011;24125;47.482;8.770;2023-01-30T06:44:41;20.73;;;10.85;;
36385;SDS011;24125;47.482;8.770;2023-01-30T06:47:14;18.92;;;9.63;;
36385;SDS011;24125;47.482;8.770;2023-01-30T06:49:47;20.10;;;10.07;;
36385;SDS011;24125;47.482;8.770;2023-01-30T06:52:20;19.08;;;10.55;;
36385;SDS011;24125;47.482;8.770;2023-01-30T06:54:54;19.65;;;10.60;;
36385;SDS011;24125;47.482;8.770;2023-01-30T06:57:27;19.17;;;10.75;;
36385;SDS011;24125;47.482;8.770;2023-01-30T07:00:00;19.83;;;10.25;;
36385;SDS011;24125;47.482;8.770;2023-01-30T07:02:34;20.02;;;10.20;;
36385;SDS011;24125;47.482;8.770;2023-01-30T07:05:07;19.52;;;10.25;;
36385;SDS011;24125;47.482;8.770;2023-01-30T07:07:41;21.58;;;11.65;;
36385;SDS011;24125;47.482;8.770;2023-01-30T07:10:15;21.15;;;10.75;;
36385;SDS011;24125;47.482;8.770;2023-01-30T07:12:48;22.85;;;10.75;;
36385;SDS011;24125;47.482;8.770;2023-01-30T07:15:21;22.58;;;10.52;;
36385;SDS011;24125;47.482;8.770;2023-01-30T07:17:54;22.30;;;11.50;;
36385;SDS011;24125;47.482;8.770;2023-01-30T07:20:27;22.70;;;11.02;;
36385;SDS011;24125;47.482;8.770;2023-01-30T07:23:02;21.35;;;10.98;;
36385;SDS011;24125;47.482;8.770;2023-01-30T07:25:36;18.23;;;10.00;;
36385;SDS011;24125;47.482;8.770;2023-01-30T07:28:09;23.63;;;11.52;;
36385;SDS011;24125;47.482;8.770;2023-01-30T07:30:42;23.13;;;11.98;;
36385;SDS011;24125;47.482;8.770;2023-01-30T07:33:16;20.23;;;10.93;;
36385;SDS011;24125;47.482;8.770;2023-01-30T07:35:48;20.40;;;11.52;;
36385;SDS011;24125;47.482;8.770;2023-01-30T07:38:21;21.63;;;11.70;;
36385;SDS011;24125;47.482;8.770;2023-01-30T07:40:57;22.65;;;11.70;;
36385;SDS011;24125;47.482;8.770;2023-01-30T07:43:30;22.13;;;11.18;;
36385;SDS011;24125;47.482;8.770;2023-01-30T07:46:03;20.88;;;11.27;;
36385;SDS011;24125;47.482;8.770;2023-01-30T07:48:36;22.83;;;11.65;;
36385;SDS011;24125;47.482;8.770;2023-01-30T07:51:09;20.58;;;10.88;;
36385;SDS011;24125;47.482;8.770;2023-01-30T07:53:42;19.35;;;10.25;;
36385;SDS011;24125;47.482;8.770;2023-01-30T07:56:16;22.52;;;10.40;;
36385;SDS011;24125;47.482;8.770;2023-01-30T07:58:50;19.67;;;10.23;;
36385;SDS011;24125;47.482;8.770;2023-01-30T08:01:25;20.10;;;10.65;;
36385;SDS011;24125;47.482;8.770;2023-01-30T08:03:58;19.17;;;9.93;;
36385;SDS011;24125;47.482;8.770;2023-01-30T08:06:31;19.38;;;10.30;;
36385;SDS011;24125;47.482;8.770;2023-01-30T08:09:09;19.83;;;9.73;;
36385;SDS011;24125;47.482;8.770;2023-01-30T08:11:43;16.40;;;9.43;;
36385;SDS011;24125;47.482;8.770;2023-01-30T08:14:16;19.08;;;9.77;;
36385;SDS011;24125;47.482;8.770;2023-01-30T08:16:50;18.48;;;9.88;;
36385;SDS011;24125;47.482;8.770;2023-01-30T08:19:23;16.75;;;9.68;;
36385;SDS011;24125;47.482;8.770;2023-01-30T08:21:57;16.05;;;9.30;;
36385;SDS011;24125;47.482;8.770;2023-01-30T08:24:31;17.05;;;9.65;;
36385;SDS011;24125;47.482;8.770;2023-01-30T08:27:05;17.10;;;9.50;;
36385;SDS011;24125;47.482;8.770;2023-01-30T08:29:38;15.38;;;8.95;;
36385;SDS011;24125;47.482;8.770;2023-01-30T08:32:11;17.60;;;9.25;;
36385;SDS011;24125;47.482;8.770;2023-01-30T08:34:46;15.57;;;8.82;;
36385;SDS011;24125;47.482;8.770;2023-01-30T08:37:18;15.15;;;9.10;;
36385;SDS011;24125;47.482;8.770;2023-01-30T08:39:51;15.73;;;9.25;;
36385;SDS011;24125;47.482;8.770;2023-01-30T08:42:26;16.52;;;9.45;;
36385;SDS011;24125;47.482;8.770;2023-01-30T08:44:59;18.20;;;9.50;;
36385;SDS011;24125;47.482;8.770;2023-01-30T08:47:32;15.57;;;9.25;;
36385;SDS011;24125;47.482;8.770;2023-01-30T08:50:06;16.73;;;9.18;;
36385;SDS011;24125;47.482;8.770;2023-01-30T08:52:41;17.08;;;9.45;;
36385;SDS011;24125;47.482;8.770;2023-01-30T08:55:14;15.02;;;8.88;;
36385;SDS011;24125;47.482;8.770;2023-01-30T08:57:49;17.08;;;9.20;;
36385;SDS011;24125;47.482;8.770;2023-01-30T09:00:22;15.57;;;9.32;;
36385;SDS011;24125;47.482;8.770;2023-01-30T09:02:55;15.73;;;8.60;;
36385;SDS011;24125;47.482;8.770;2023-01-30T09:05:29;13.27;;;8.55;;
36385;SDS011;24125;47.482;8.770;2023-01-30T09:08:02;16.15;;;8.88;;
36385;SDS011;24125;47.482;8.770;2023-01-30T09:10:35;14.82;;;8.57;;
36385;SDS011;24125;47.482;8.770;2023-01-30T09:13:09;14.00;;;8.15;;
36385;SDS011;24125;47.482;8.770;2023-01-30T09:15:42;15.48;;;8.20;;
36385;SDS011;24125;47.482;8.770;2023-01-30T09:18:16;14.13;;;8.50;;
36385;SDS011;24125;47.482;8.770;2023-01-30T09:20:49;12.88;;;7.70;;
36385;SDS011;24125;47.482;8.770;2023-01-30T09:23:23;14.68;;;8.43;;
36385;SDS011;24125;47.482;8.770;2023-01-30T09:25:56;12.93;;;8.13;;
36385;SDS011;24125;47.482;8.770;2023-01-30T09:28:32;14.23;;;8.38;;
36385;SDS011;24125;47.482;8.770;2023-01-30T09:31:06;15.77;;;8.10;;
36385;SDS011;24125;47.482;8.770;2023-01-30T09:33:39;13.57;;;8.05;;
36385;SDS011;24125;47.482;8.770;2023-01-30T09:36:12;13.43;;;8.20;;
36385;SDS011;24125;47.482;8.770;2023-01-30T09:38:45;14.00;;;8.10;;
36385;SDS011;24125;47.482;8.770;2023-01-30T09:41:23;12.35;;;7.30;;
36385;SDS011;24125;47.482;8.770;2023-01-30T09:44:31;11.98;;;7.07;;
36385;SDS011;24125;47.482;8.770;2023-01-30T09:47:19;12.48;;;7.25;;
36385;SDS011;24125;47.482;8.770;2023-01-30T09:49:58;13.02;;;7.97;;
36385;SDS011;24125;47.482;8.770;2023-01-30T09:52:45;13.20;;;7.68;;
36385;SDS011;24125;47.482;8.770;2023-01-30T09:55:27;13.02;;;7.78;;
36385;SDS011;24125;47.482;8.770;2023-01-30T09:58:02;14.63;;;7.63;;
36385;SDS011;24125;47.482;8.770;2023-01-30T10:00:38;13.55;;;7.70;;
36385;SDS011;24125;47.482;8.770;2023-01-30T10:03:13;12.43;;;7.38;;
36385;SDS011;24125;47.482;8.770;2023-01-30T10:05:50;12.23;;;7.50;;
36385;SDS011;24125;47.482;8.770;2023-01-30T10:08:32;15.23;;;8.00;;
36385;SDS011;24125;47.482;8.770;2023-01-30T10:11:16;12.88;;;7.25;;
36385;SDS011;24125;47.482;8.770;2023-01-30T10:14:15;14.65;;;7.53;;
36385;SDS011;24125;47.482;8.770;2023-01-30T10:17:06;11.52;;;7.00;;
36385;SDS011;24125;47.482;8.770;2023-01-30T10:20:00;13.40;;;8.10;;
36385;SDS011;24125;47.482;8.770;2023-01-30T10:22:45;13.48;;;7.93;;
36385;SDS011;24125;47.482;8.770;2023-01-30T10:25:31;16.13;;;8.68;;
36385;SDS011;24125;47.482;8.770;2023-01-30T10:28:10;13.18;;;8.32;;
36385;SDS011;24125;47.482;8.770;2023-01-30T10:30:48;14.45;;;8.65;;
36385;SDS011;24125;47.482;8.770;2023-01-30T10:33:26;16.85;;;8.57;;
36385;SDS011;24125;47.482;8.770;2023-01-30T10:36:05;14.25;;;8.68;;
36385;SDS011;24125;47.482;8.770;2023-01-30T10:38:42;15.50;;;9.27;;
36385;SDS011;24125;47.482;8.770;2023-01-30T10:41:21;16.55;;;9.35;;
36385;SDS011;24125;47.482;8.770;2023-01-30T10:43:58;16.85;;;9.70;;
36385;SDS011;24125;47.482;8.770;2023-01-30T10:46:42;15.20;;;8.77;;
36385;SDS011;24125;47.482;8.770;2023-01-30T10:49:30;15.27;;;8.80;;
36385;SDS011;24125;47.482;8.770;2023-01-30T10:52:17;15.88;;;9.65;;
36385;SDS011;24125;47.482;8.770;2023-01-30T10:55:00;14.70;;;8.85;;
36385;SDS011;24125;47.482;8.770;2023-01-30T10:57:46;14.93;;;8.90;;
36385;SDS011;24125;47.482;8.770;2023-01-30T11:00:26;14.43;;;8.48;;
36385;SDS011;24125;47.482;8.770;2023-01-30T11:03:09;17.15;;;9.57;;
36385;SDS011;24125;47.482;8.770;2023-01-30T11:06:01;14.55;;;8.27;;
36385;SDS011;24125;47.482;8.770;2023-01-30T11:08:39;15.80;;;9.25;;
36385;SDS011;24125;47.482;8.770;2023-01-30T11:11:19;17.02;;;9.73;;
36385;SDS011;24125;47.482;8.770;2023-01-30T11:14:00;15.00;;;8.88;;
36385;SDS011;24125;47.482;8.770;2023-01-30T11:16:39;16.48;;;9.35;;
36385;SDS011;24125;47.482;8.770;2023-01-30T11:19:15;16.00;;;8.95;;
36385;SDS011;24125;47.482;8.770;2023-01-30T11:21:55;15.77;;;9.20;;
36385;SDS011;24125;47.482;8.770;2023-01-30T11:24:38;16.60;;;9.50;;
36385;SDS011;24125;47.482;8.770;2023-01-30T11:27:15;21.65;;;9.75;;
36385;SDS011;24125;47.482;8.770;2023-01-30T11:29:52;18.13;;;9.68;;
36385;SDS011;24125;47.482;8.770;2023-01-30T11:32:35;16.33;;;9.77;;
36385;SDS011;24125;47.482;8.770;2023-01-30T11:35:16;17.60;;;9.57;;
36385;SDS011;24125;47.482;8.770;2023-01-30T11:37:57;16.42;;;9.52;;
36385;SDS011;24125;47.482;8.770;2023-01-30T11:40:44;16.77;;;9.43;;
36385;SDS011;24125;47.482;8.770;2023-01-30T11:43:17;17.23;;;9.77;;
36385;SDS011;24125;47.482;8.770;2023-01-30T11:45:50;15.75;;;8.98;;
36385;SDS011;24125;47.482;8.770;2023-01-30T11:48:25;17.65;;;9.43;;
36385;SDS011;24125;47.482;8.770;2023-01-30T11:51:20;15.15;;;9.10;;
36385;SDS011;24125;47.482;8.770;2023-01-30T11:53:57;16.73;;;10.05;;
36385;SDS011;24125;47.482;8.770;2023-01-30T11:56:33;15.20;;;8.98;;
36385;SDS011;24125;47.482;8.770;2023-01-30T11:59:14;17.85;;;10.10;;
36385;SDS011;24125;47.482;8.770;2023-01-30T12:02:00;16.38;;;9.63;;
36385;SDS011;24125;47.482;8.770;2023-01-30T12:04:36;17.52;;;10.15;;
36385;SDS011;24125;47.482;8.770;2023-01-30T12:07:15;16.27;;;9.93;;
36385;SDS011;24125;47.482;8.770;2023-01-30T12:09:53;17.23;;;9.30;;
36385;SDS011;24125;47.482;8.770;2023-01-30T12:12:28;17.55;;;9.68;;
36385;SDS011;24125;47.482;8.770;2023-01-30T12:15:11;16.35;;;9.75;;
36385;SDS011;24125;47.482;8.770;2023-01-30T12:17:51;14.73;;;9.13;;
36385;SDS011;24125;47.482;8.770;2023-01-30T12:20:39;15.80;;;9.07;;
36385;SDS011;24125;47.482;8.770;2023-01-30T12:23:22;15.48;;;8.93;;
36385;SDS011;24125;47.482;8.770;2023-01-30T12:26:13;14.77;;;8.93;;
36385;SDS011;24125;47.482;8.770;2023-01-30T12:28:51;14.07;;;8.23;;
36385;SDS011;24125;47.482;8.770;2023-01-30T12:31:29;16.13;;;9.63;;
36385;SDS011;24125;47.482;8.770;2023-01-30T12:34:07;15.30;;;8.93;;
36385;SDS011;24125;47.482;8.770;2023-01-30T12:36:41;16.92;;;9.18;;
36385;SDS011;24125;47.482;8.770;2023-01-30T12:39:23;17.77;;;10.25;;
36385;SDS011;24125;47.482;8.770;2023-01-30T12:42:17;14.80;;;9.25;;
36385;SDS011;24125;47.482;8.770;2023-01-30T12:47:53;13.75;;;8.45;;
36385;SDS011;24125;47.482;8.770;2023-01-30T12:50:42;12.82;;;8.38;;
36385;SDS011;24125;47.482;8.770;2023-01-30T12:53:28;16.50;;;9.98;;
36385;SDS011;24125;47.482;8.770;2023-01-30T12:59:13;13.30;;;8.25;;
36385;SDS011;24125;47.482;8.770;2023-01-30T13:01:54;14.73;;;8.70;;
36385;SDS011;24125;47.482;8.770;2023-01-30T13:04:37;16.98;;;9.50;;
36385;SDS011;24125;47.482;8.770;2023-01-30T13:07:35;15.50;;;9.00;;
36385;SDS011;24125;47.482;8.770;2023-01-30T13:10:15;13.82;;;8.75;;
36385;SDS011;24125;47.482;8.770;2023-01-30T13:12:58;13.02;;;8.93;;
36385;SDS011;24125;47.482;8.770;2023-01-30T13:15:43;13.95;;;9.50;;
36385;SDS011;24125;47.482;8.770;2023-01-30T13:18:24;13.85;;;9.05;;
36385;SDS011;24125;47.482;8.770;2023-01-30T13:21:03;12.63;;;8.60;;
36385;SDS011;24125;47.482;8.770;2023-01-30T13:23:43;15.25;;;9.23;;
36385;SDS011;24125;47.482;8.770;2023-01-30T13:26:36;13.93;;;8.98;;
36385;SDS011;24125;47.482;8.770;2023-01-30T13:29:13;14.43;;;8.57;;
36385;SDS011;24125;47.482;8.770;2023-01-30T13:31:53;13.38;;;8.07;;
36385;SDS011;24125;47.482;8.770;2023-01-30T13:34:30;13.82;;;8.60;;
36385;SDS011;24125;47.482;8.770;2023-01-30T13:37:07;12.50;;;8.27;;
36385;SDS011;24125;47.482;8.770;2023-01-30T13:39:44;15.55;;;9.80;;
36385;SDS011;24125;47.482;8.770;2023-01-30T13:42:25;15.30;;;8.68;;
36385;SDS011;24125;47.482;8.770;2023-01-30T13:45:02;13.50;;;8.32;;
36385;SDS011;24125;47.482;8.770;2023-01-30T13:47:41;14.02;;;8.77;;
36385;SDS011;24125;47.482;8.770;2023-01-30T13:50:32;13.48;;;8.40;;
36385;SDS011;24125;47.482;8.770;2023-01-30T13:53:13;12.05;;;7.95;;
36385;SDS011;24125;47.482;8.770;2023-01-30T13:55:55;13.48;;;9.13;;
36385;SDS011;24125;47.482;8.770;2023-01-30T13:58:36;15.70;;;9.65;;
36385;SDS011;24125;47.482;8.770;2023-01-30T14:01:17;12.93;;;8.43;;
36385;SDS011;24125;47.482;8.770;2023-01-30T14:03:52;11.30;;;7.78;;
36385;SDS011;24125;47.482;8.770;2023-01-30T14:06:29;13.82;;;8.20;;
36385;SDS011;24125;47.482;8.770;2023-01-30T14:09:16;13.95;;;8.57;;
36385;SDS011;24125;47.482;8.770;2023-01-30T14:11:55;15.63;;;8.20;;
36385;SDS011;24125;47.482;8.770;2023-01-30T14:14:29;13.30;;;8.40;;
36385;SDS011;24125;47.482;8.770;2023-01-30T14:17:10;12.02;;;7.82;;
36385;SDS011;24125;47.482;8.770;2023-01-30T14:19:53;12.60;;;8.20;;
36385;SDS011;24125;47.482;8.770;2023-01-30T14:22:36;12.73;;;8.15;;
36385;SDS011;24125;47.482;8.770;2023-01-30T14:25:31;15.10;;;8.13;;
36385;SDS011;24125;47.482;8.770;2023-01-30T14:40:45;10.88;;;7.03;;
36385;SDS011;24125;47.482;8.770;2023-01-30T14:43:34;9.98;;;6.38;;
36385;SDS011;24125;47.482;8.770;2023-01-30T14:49:30;9.05;;;6.05;;
36385;SDS011;24125;47.482;8.770;2023-01-30T14:52:04;11.23;;;6.93;;
36385;SDS011;24125;47.482;8.770;2023-01-30T14:54:54;10.35;;;6.80;;
36385;SDS011;24125;47.482;8.770;2023-01-30T14:57:28;10.02;;;6.45;;
36385;SDS011;24125;47.482;8.770;2023-01-30T15:00:05;10.98;;;6.25;;
36385;SDS011;24125;47.482;8.770;2023-01-30T15:02:50;11.70;;;6.90;;
36385;SDS011;24125;47.482;8.770;2023-01-30T15:05:30;11.95;;;7.03;;
36385;SDS011;24125;47.482;8.770;2023-01-30T15:08:05;10.10;;;6.68;;
36385;SDS011;24125;47.482;8.770;2023-01-30T15:10:52;12.48;;;7.07;;
36385;SDS011;24125;47.482;8.770;2023-01-30T15:16:38;9.18;;;6.20;;
36385;SDS011;24125;47.482;8.770;2023-01-30T15:19:40;10.95;;;6.68;;
36385;SDS011;24125;47.482;8.770;2023-01-30T15:22:35;10.07;;;6.43;;
36385;SDS011;24125;47.482;8.770;2023-01-30T15:25:26;10.73;;;7.13;;
36385;SDS011;24125;47.482;8.770;2023-01-30T15:28:12;9.98;;;6.28;;
36385;SDS011;24125;47.482;8.770;2023-01-30T15:30:57;10.27;;;5.90;;
36385;SDS011;24125;47.482;8.770;2023-01-30T15:33:43;8.77;;;5.93;;
36385;SDS011;24125;47.482;8.770;2023-01-30T15:36:18;10.48;;;6.38;;
36385;SDS011;24125;47.482;8.770;2023-01-30T15:38:56;10.18;;;6.47;;
36385;SDS011;24125;47.482;8.770;2023-01-30T15:41:37;10.18;;;6.43;;
36385;SDS011;24125;47.482;8.770;2023-01-30T15:44:19;11.07;;;6.43;;
36385;SDS011;24125;47.482;8.770;2023-01-30T15:50:16;11.25;;;6.40;;
36385;SDS011;24125;47.482;8.770;2023-01-30T15:52:50;11.25;;;6.63;;
36385;SDS011;24125;47.482;8.770;2023-01-30T15:55:27;10.82;;;6.40;;
36385;SDS011;24125;47.482;8.770;2023-01-30T15:58:03;11.93;;;6.60;;
36385;SDS011;24125;47.482;8.770;2023-01-30T16:00:39;13.25;;;6.78;;